createdAt,value
2023-05-10T00:02:15.691Z,13.60
2023-05-10T00:05:02.106Z,13.50
2023-05-10T00:07:49.945Z,13.50
2023-05-10T00:10:35.342Z,13.50
2023-05-10T00:13:20.969Z,13.50
2023-05-10T00:16:06.780Z,13.50
2023-05-10T00:18:52.393Z,13.40
2023-05-10T00:21:38.992Z,13.50
2023-05-10T00:24:24.784Z,13.40
2023-05-10T00:27:09.982Z,13.40
2023-05-10T00:29:56.594Z,13.40
2023-05-10T00:32:42.264Z,13.40
2023-05-10T00:35:27.742Z,13.40
2023-05-10T00:38:13.109Z,13.40
2023-05-10T00:40:58.836Z,13.30
2023-05-10T00:43:50.230Z,13.30
2023-05-10T00:46:37.022Z,13.30
2023-05-10T00:49:23.172Z,13.30
2023-05-10T00:52:11.403Z,13.30
2023-05-10T00:54:57.837Z,13.30
2023-05-10T00:57:44.276Z,13.40
2023-05-10T01:00:30.601Z,13.50
2023-05-10T01:03:16.123Z,13.50
2023-05-10T01:06:01.797Z,13.50
2023-05-10T01:08:49.710Z,13.50
2023-05-10T01:11:37.034Z,13.50
2023-05-10T01:14:24.152Z,13.60
2023-05-10T01:17:11.962Z,13.60
2023-05-10T01:19:57.313Z,13.60
2023-05-10T01:23:10.269Z,13.60
2023-05-10T01:26:45.022Z,13.60
2023-05-10T01:29:51.501Z,13.70
2023-05-10T01:33:25.969Z,13.70
2023-05-10T01:36:26.974Z,13.80
2023-05-10T01:39:22.541Z,13.90
2023-05-10T01:42:40.491Z,13.90
2023-05-10T01:45:34.831Z,13.90
2023-05-10T01:48:23.909Z,14.00
2023-05-10T01:51:10.879Z,14.00
2023-05-10T01:54:04.626Z,13.90
2023-05-10T01:56:57.216Z,13.90
2023-05-10T01:59:46.339Z,13.90
2023-05-10T02:02:37.733Z,13.90
2023-05-10T02:05:25.238Z,13.80
2023-05-10T02:08:11.897Z,13.80
2023-05-10T02:11:00.989Z,13.90
2023-05-10T02:13:50.722Z,13.90
2023-05-10T02:16:37.413Z,14.00
2023-05-10T02:19:24.707Z,14.00
2023-05-10T02:22:11.414Z,14.00
2023-05-10T02:24:59.566Z,14.00
2023-05-10T02:27:48.456Z,14.00
2023-05-10T02:30:35.814Z,14.00
2023-05-10T02:33:25.031Z,14.10
2023-05-10T02:36:11.801Z,14.10
2023-05-10T02:38:59.005Z,14.20
2023-05-10T02:41:46.354Z,14.20
2023-05-10T02:44:35.152Z,14.30
2023-05-10T02:47:22.155Z,14.30
2023-05-10T02:50:08.674Z,14.30
2023-05-10T02:52:58.341Z,14.30
2023-05-10T02:55:46.042Z,14.40
2023-05-10T02:58:31.865Z,14.40
2023-05-10T03:01:17.503Z,14.40
2023-05-10T03:04:03.410Z,14.50
2023-05-10T03:06:49.224Z,14.50
2023-05-10T03:09:36.226Z,14.50
2023-05-10T03:12:31.263Z,14.50
2023-05-10T03:15:46.912Z,14.50
2023-05-10T03:18:45.605Z,14.40
2023-05-10T03:21:32.671Z,14.50
2023-05-10T03:24:22.627Z,14.50
2023-05-10T03:27:11.578Z,14.50
2023-05-10T03:29:58.389Z,14.50
2023-05-10T03:32:47.125Z,14.50
2023-05-10T03:35:35.511Z,14.40
2023-05-10T03:38:21.124Z,14.50
2023-05-10T03:41:06.602Z,14.50
2023-05-10T03:43:52.851Z,14.50
2023-05-10T03:46:38.400Z,14.60
2023-05-10T03:49:24.029Z,14.50
2023-05-10T03:52:09.445Z,14.50
2023-05-10T03:54:55.095Z,14.50
2023-05-10T03:57:40.672Z,14.50
2023-05-10T04:00:26.760Z,14.40
2023-05-10T04:03:14.768Z,14.40
2023-05-10T04:06:03.837Z,14.40
2023-05-10T04:08:49.376Z,14.50
2023-05-10T04:11:34.982Z,14.50
2023-05-10T04:14:20.516Z,14.50
2023-05-10T04:17:06.756Z,14.50
2023-05-10T04:19:54.088Z,14.60
2023-05-10T04:22:39.557Z,14.60
2023-05-10T04:25:24.860Z,14.50
2023-05-10T04:28:10.576Z,14.50
2023-05-10T04:31:05.938Z,14.50
2023-05-10T04:33:51.403Z,14.40
2023-05-10T04:36:37.678Z,14.50
2023-05-10T04:39:22.956Z,14.50
2023-05-10T04:42:08.969Z,14.50
2023-05-10T04:44:54.139Z,14.50
2023-05-10T04:47:39.677Z,14.50
2023-05-10T04:50:25.279Z,14.50
2023-05-10T04:53:10.784Z,14.50
2023-05-10T04:55:56.470Z,14.60
2023-05-10T04:58:42.247Z,14.60
2023-05-10T05:01:27.618Z,14.50
2023-05-10T05:04:13.206Z,14.60
2023-05-10T05:06:58.728Z,14.60
2023-05-10T05:09:44.070Z,14.50
2023-05-10T05:12:29.532Z,14.50
2023-05-10T05:15:16.263Z,14.50
2023-05-10T05:18:04.619Z,14.50
2023-05-10T05:20:49.995Z,14.60
2023-05-10T05:23:36.596Z,14.60
2023-05-10T05:26:22.759Z,14.70
2023-05-10T05:29:09.311Z,14.80
2023-05-10T05:31:55.611Z,14.90
2023-05-10T05:34:45.606Z,14.90
2023-05-10T05:37:31.208Z,14.90
2023-05-10T05:40:16.474Z,14.90
2023-05-10T05:43:03.383Z,14.90
2023-05-10T05:45:48.917Z,14.90
2023-05-10T05:48:34.294Z,14.80
2023-05-10T05:51:19.771Z,14.90
2023-05-10T05:54:05.484Z,14.80
2023-05-10T05:56:53.640Z,14.80
2023-05-10T05:59:44.761Z,14.80
2023-05-10T06:02:29.963Z,14.80
2023-05-10T06:05:16.317Z,14.80
2023-05-10T06:08:02.071Z,14.80
2023-05-10T06:10:47.382Z,14.80
2023-05-10T06:13:34.612Z,14.80
2023-05-10T06:16:20.266Z,14.90
2023-05-10T06:19:05.429Z,14.90
2023-05-10T06:21:53.184Z,15.00
2023-05-10T06:24:38.958Z,15.10
2023-05-10T06:27:25.390Z,15.10
2023-05-10T06:30:13.617Z,15.20
2023-05-10T06:32:59.252Z,15.20
2023-05-10T06:35:44.664Z,15.30
2023-05-10T06:38:30.437Z,15.40
2023-05-10T06:41:16.029Z,15.60
2023-05-10T06:44:04.876Z,15.70
2023-05-10T06:46:51.294Z,15.90
2023-05-10T06:49:38.221Z,16.00
2023-05-10T06:52:24.397Z,16.00
2023-05-10T06:55:10.089Z,16.20
2023-05-10T06:57:55.802Z,16.40
2023-05-10T07:00:43.832Z,16.50
2023-05-10T07:03:29.507Z,16.70
2023-05-10T07:06:29.450Z,17.00
2023-05-10T07:09:18.068Z,17.10
2023-05-10T07:12:03.904Z,17.20
2023-05-10T07:14:49.639Z,17.20
2023-05-10T07:17:35.443Z,17.10
2023-05-10T07:20:20.838Z,17.10
2023-05-10T07:23:06.654Z,17.30
2023-05-10T07:25:55.181Z,17.40
2023-05-10T07:28:40.360Z,17.40
2023-05-10T07:31:25.974Z,17.30
2023-05-10T07:34:11.652Z,17.00
2023-05-10T07:36:59.090Z,16.70
2023-05-10T07:39:44.421Z,16.60
2023-05-10T07:42:30.032Z,16.60
2023-05-10T07:45:18.842Z,16.50
2023-05-10T07:48:05.344Z,16.40
2023-05-10T07:50:50.747Z,16.20
2023-05-10T07:53:36.662Z,16.10
2023-05-10T07:56:23.710Z,16.20
2023-05-10T07:59:10.759Z,16.30
2023-05-10T08:02:01.695Z,16.40
2023-05-10T08:04:47.174Z,16.40
2023-05-10T08:07:33.316Z,16.40
2023-05-10T08:10:19.274Z,16.40
2023-05-10T08:13:05.269Z,16.50
2023-05-10T08:15:53.828Z,16.50
2023-05-10T08:18:39.815Z,16.50
2023-05-10T08:21:28.774Z,16.60
2023-05-10T08:24:15.385Z,16.60
2023-05-10T08:27:00.737Z,16.70
2023-05-10T08:29:49.920Z,16.60
2023-05-10T08:32:36.214Z,16.60
2023-05-10T08:35:21.773Z,16.50
2023-05-10T08:38:07.369Z,16.50
2023-05-10T08:40:57.609Z,16.40
2023-05-10T08:43:47.188Z,16.40
2023-05-10T08:46:36.445Z,16.40
2023-05-10T08:49:23.613Z,16.60
2023-05-10T08:52:14.043Z,16.70
2023-05-10T08:54:59.645Z,16.70
2023-05-10T08:57:45.391Z,16.70
2023-05-10T09:00:31.600Z,16.70
2023-05-10T09:03:17.929Z,16.70
2023-05-10T09:06:03.256Z,16.60
2023-05-10T09:08:49.356Z,16.40
2023-05-10T09:11:43.458Z,16.20
2023-05-10T09:14:29.629Z,16.20
2023-05-10T09:17:15.019Z,16.10
2023-05-10T09:20:01.410Z,16.20
2023-05-10T09:22:47.087Z,16.20
2023-05-10T09:25:34.735Z,16.30
2023-05-10T09:28:22.973Z,16.50
2023-05-10T09:31:08.554Z,16.70
2023-05-10T09:33:55.038Z,17.00
2023-05-10T09:36:58.776Z,17.20
2023-05-10T09:39:45.950Z,17.50
2023-05-10T09:42:31.124Z,17.50
2023-05-10T09:45:18.492Z,17.70
2023-05-10T09:48:04.935Z,17.90
2023-05-10T09:50:58.219Z,18.10
2023-05-10T09:53:43.647Z,18.20
2023-05-10T09:56:36.509Z,18.20
2023-05-10T09:59:22.133Z,18.10
2023-05-10T10:02:08.189Z,18.20
2023-05-10T10:04:54.157Z,18.30
2023-05-10T10:07:40.295Z,18.50
2023-05-10T10:10:26.526Z,18.70
2023-05-10T10:13:11.989Z,18.80
2023-05-10T10:15:59.253Z,18.70
2023-05-10T10:18:44.982Z,18.80
2023-05-10T10:21:30.405Z,18.90
2023-05-10T10:24:16.256Z,18.90
2023-05-10T10:27:24.530Z,18.90
2023-05-10T10:30:31.484Z,18.80
2023-05-10T10:33:28.933Z,18.80
2023-05-10T10:36:14.976Z,18.80
2023-05-10T10:39:03.964Z,18.90
2023-05-10T10:41:54.908Z,18.80
2023-05-10T10:44:41.560Z,18.70
2023-05-10T10:47:33.890Z,18.70
2023-05-10T10:50:19.353Z,19.00
2023-05-10T10:53:11.790Z,19.40
2023-05-10T10:56:11.223Z,19.80
2023-05-10T10:59:00.952Z,19.80
2023-05-10T11:01:52.648Z,19.80
2023-05-10T11:04:47.683Z,19.50
2023-05-10T11:07:33.436Z,19.20
2023-05-10T11:10:24.607Z,19.10
2023-05-10T11:13:11.097Z,18.90
2023-05-10T11:15:58.105Z,18.70
2023-05-10T11:18:59.133Z,18.40
2023-05-10T11:21:48.664Z,18.20
2023-05-10T11:24:34.825Z,18.00
2023-05-10T11:27:21.222Z,17.90
2023-05-10T11:30:08.965Z,17.80
2023-05-10T11:32:54.455Z,17.80
2023-05-10T11:35:43.442Z,17.90
2023-05-10T11:38:29.150Z,17.80
2023-05-10T11:41:16.367Z,17.90
2023-05-10T11:44:05.409Z,17.90
2023-05-10T11:46:51.135Z,18.10
2023-05-10T11:49:36.701Z,18.40
2023-05-10T11:52:22.709Z,18.50
2023-05-10T11:55:08.723Z,18.60
2023-05-10T11:57:55.492Z,18.70
2023-05-10T12:00:41.333Z,18.70
2023-05-10T12:03:27.762Z,18.80
2023-05-10T12:06:13.213Z,18.90
2023-05-10T12:08:59.408Z,19.00
2023-05-10T12:11:45.395Z,19.00
2023-05-10T12:14:36.432Z,19.10
2023-05-10T12:17:22.298Z,19.40
2023-05-10T12:20:26.067Z,19.60
2023-05-10T12:23:12.592Z,20.00
2023-05-10T12:26:05.154Z,20.20
2023-05-10T12:28:51.476Z,20.40
2023-05-10T12:31:57.510Z,20.70
2023-05-10T12:34:44.067Z,21.20
2023-05-10T12:37:31.075Z,21.70
2023-05-10T12:40:16.862Z,21.80
2023-05-10T12:43:02.549Z,21.70
2023-05-10T12:45:49.985Z,21.40
2023-05-10T12:48:36.449Z,21.20
2023-05-10T12:51:23.265Z,21.30
2023-05-10T12:54:09.101Z,21.40
2023-05-10T12:56:54.288Z,21.60
2023-05-10T12:59:39.804Z,21.50
2023-05-10T13:02:25.442Z,21.30
2023-05-10T13:05:11.079Z,21.10
2023-05-10T13:07:56.183Z,20.80
2023-05-10T13:10:41.764Z,20.70
2023-05-10T13:13:27.421Z,20.30
2023-05-10T13:16:15.255Z,20.10
2023-05-10T13:19:01.228Z,19.80
2023-05-10T13:21:47.873Z,19.30
2023-05-10T13:24:36.613Z,18.80
2023-05-10T13:27:21.994Z,18.70
2023-05-10T13:30:08.979Z,18.60
2023-05-10T13:32:54.750Z,18.60
2023-05-10T13:35:40.597Z,18.50
2023-05-10T13:38:26.905Z,18.40
2023-05-10T13:41:12.826Z,18.50
2023-05-10T13:43:58.201Z,18.50
2023-05-10T13:46:43.667Z,18.60
2023-05-10T13:49:29.235Z,18.50
2023-05-10T13:52:14.908Z,18.40
2023-05-10T13:55:01.509Z,18.50
2023-05-10T13:57:53.429Z,18.50
2023-05-10T14:00:39.677Z,18.40
2023-05-10T14:03:25.203Z,18.40
2023-05-10T14:06:10.630Z,18.30
2023-05-10T14:08:56.148Z,18.30
2023-05-10T14:11:44.092Z,18.30
2023-05-10T14:14:30.611Z,18.40
2023-05-10T14:17:16.480Z,18.50
2023-05-10T14:20:02.072Z,18.60
2023-05-10T14:22:49.264Z,18.80
2023-05-10T14:25:35.569Z,18.90
2023-05-10T14:28:21.748Z,19.10
2023-05-10T14:31:07.649Z,19.20
2023-05-10T14:33:53.921Z,19.30
2023-05-10T14:36:39.819Z,19.30
2023-05-10T14:39:25.190Z,19.20
2023-05-10T14:42:10.912Z,19.20
2023-05-10T14:44:56.405Z,19.20
2023-05-10T14:47:41.842Z,19.30
2023-05-10T14:50:36.418Z,19.30
2023-05-10T14:53:22.769Z,19.20
2023-05-10T14:56:08.209Z,19.40
2023-05-10T14:58:53.648Z,19.50
2023-05-10T15:01:42.552Z,19.70
2023-05-10T15:04:29.505Z,19.70
2023-05-10T15:07:17.276Z,19.70
2023-05-10T15:10:03.475Z,19.70
2023-05-10T15:12:51.667Z,19.80
2023-05-10T15:15:37.438Z,19.80
2023-05-10T15:18:24.542Z,19.80
2023-05-10T15:21:10.393Z,19.80
2023-05-10T15:23:55.567Z,19.80
2023-05-10T15:26:41.878Z,19.70
2023-05-10T15:29:27.691Z,19.70
2023-05-10T15:32:13.117Z,19.80
2023-05-10T15:34:59.171Z,19.80
2023-05-10T15:37:44.678Z,19.80
2023-05-10T15:40:30.194Z,19.80
2023-05-10T15:43:16.161Z,19.80
2023-05-10T15:46:02.653Z,19.80
2023-05-10T15:48:48.460Z,19.70
2023-05-10T15:51:36.880Z,19.60
2023-05-10T15:54:22.248Z,19.70
2023-05-10T15:57:08.291Z,19.70
2023-05-10T15:59:53.659Z,19.70
2023-05-10T16:02:42.886Z,19.70
2023-05-10T16:05:32.772Z,19.80
2023-05-10T16:08:18.508Z,19.90
2023-05-10T16:11:04.195Z,19.90
2023-05-10T16:13:49.935Z,20.00
2023-05-10T16:16:36.105Z,20.00
2023-05-10T16:19:21.601Z,20.00
2023-05-10T16:22:07.645Z,20.00
2023-05-10T16:24:57.247Z,20.00
2023-05-10T16:27:43.231Z,20.00
2023-05-10T16:30:30.425Z,19.90
2023-05-10T16:33:16.354Z,19.90
2023-05-10T16:36:01.720Z,20.10
2023-05-10T16:38:47.321Z,20.30
2023-05-10T16:41:34.334Z,20.60
2023-05-10T16:44:20.836Z,20.80
2023-05-10T16:47:07.670Z,21.00
2023-05-10T16:49:53.076Z,21.30
2023-05-10T16:52:38.719Z,21.30
2023-05-10T16:55:26.317Z,21.20
2023-05-10T16:58:12.196Z,21.10
2023-05-10T17:00:57.609Z,21.00
2023-05-10T17:03:43.596Z,20.90
2023-05-10T17:06:29.522Z,20.80
2023-05-10T17:09:14.787Z,20.70
2023-05-10T17:12:00.397Z,20.40
2023-05-10T17:14:45.797Z,20.20
2023-05-10T17:17:32.252Z,20.00
2023-05-10T17:20:17.939Z,19.80
2023-05-10T17:23:03.662Z,19.60
2023-05-10T17:25:48.942Z,19.50
2023-05-10T17:28:34.617Z,19.20
2023-05-10T17:31:20.188Z,19.10
2023-05-10T17:34:05.924Z,19.10
2023-05-10T17:36:51.368Z,19.00
2023-05-10T17:39:39.345Z,18.90
2023-05-10T17:42:25.280Z,18.90
2023-05-10T17:45:11.917Z,18.90
2023-05-10T17:47:57.693Z,18.70
2023-05-10T17:50:43.456Z,18.70
2023-05-10T17:53:29.347Z,18.70
2023-05-10T17:56:15.794Z,18.60
2023-05-10T17:59:01.241Z,18.50
2023-05-10T18:01:46.942Z,18.30
2023-05-10T18:04:33.236Z,18.30
2023-05-10T18:07:18.851Z,18.30
2023-05-10T18:10:04.424Z,18.20
2023-05-10T18:12:50.587Z,18.10
2023-05-10T18:15:36.358Z,17.90
2023-05-10T18:18:21.513Z,17.80
2023-05-10T18:21:07.123Z,17.70
2023-05-10T18:23:54.966Z,17.60
2023-05-10T18:26:40.381Z,17.50
2023-05-10T18:29:26.573Z,17.40
2023-05-10T18:32:11.860Z,17.40
2023-05-10T18:34:58.044Z,17.60
2023-05-10T18:37:43.422Z,17.60
2023-05-10T18:40:28.806Z,17.40
2023-05-10T18:43:14.284Z,17.20
2023-05-10T18:46:00.943Z,17.10
2023-05-10T18:48:46.622Z,16.90
2023-05-10T18:51:32.402Z,16.80
2023-05-10T18:54:21.203Z,16.70
2023-05-10T18:57:07.208Z,16.50
2023-05-10T18:59:53.223Z,16.40
2023-05-10T19:02:42.341Z,16.30
2023-05-10T19:05:30.348Z,16.10
2023-05-10T19:08:16.696Z,15.90
2023-05-10T19:11:02.422Z,15.80
2023-05-10T19:13:48.029Z,15.80
2023-05-10T19:16:35.429Z,15.70
2023-05-10T19:19:22.086Z,15.60
2023-05-10T19:22:08.307Z,15.60
2023-05-10T19:24:53.903Z,15.50
2023-05-10T19:27:39.705Z,15.40
2023-05-10T19:30:26.469Z,15.40
2023-05-10T19:33:12.799Z,15.30
2023-05-10T19:35:58.386Z,15.30
2023-05-10T19:38:43.805Z,15.30
2023-05-10T19:41:29.047Z,15.30
2023-05-10T19:44:15.894Z,15.20
2023-05-10T19:47:01.448Z,15.20
2023-05-10T19:49:46.838Z,15.20
2023-05-10T19:52:32.008Z,15.10
2023-05-10T19:55:30.091Z,15.10
2023-05-10T19:58:15.878Z,15.00
2023-05-10T20:01:01.595Z,15.00
2023-05-10T20:03:46.719Z,15.00
2023-05-10T20:06:33.027Z,15.00
2023-05-10T20:09:18.213Z,14.90
2023-05-10T20:12:05.741Z,14.90
2023-05-10T20:14:51.521Z,14.90
2023-05-10T20:17:37.007Z,14.90
2023-05-10T20:20:22.574Z,14.90
2023-05-10T20:23:07.662Z,14.90
2023-05-10T20:25:54.694Z,14.90
2023-05-10T20:28:42.697Z,14.90
2023-05-10T20:31:28.177Z,14.90
2023-05-10T20:34:13.712Z,14.80
2023-05-10T20:37:01.310Z,14.80
2023-05-10T20:39:50.551Z,14.80
2023-05-10T20:42:36.496Z,14.80
2023-05-10T20:45:25.481Z,14.70
2023-05-10T20:48:11.004Z,14.70
2023-05-10T20:50:56.575Z,14.70
2023-05-10T20:53:41.966Z,14.70
2023-05-10T20:56:27.683Z,14.60
2023-05-10T20:59:13.682Z,14.60
2023-05-10T21:02:01.158Z,14.50
2023-05-10T21:04:46.711Z,14.50
2023-05-10T21:07:35.403Z,14.50
2023-05-10T21:10:21.621Z,14.50
2023-05-10T21:13:06.811Z,14.50
2023-05-10T21:15:52.491Z,14.40
2023-05-10T21:18:38.209Z,14.40
2023-05-10T21:21:23.662Z,14.40
2023-05-10T21:24:09.371Z,14.40
2023-05-10T21:26:54.663Z,14.40
2023-05-10T21:29:42.880Z,14.30
2023-05-10T21:32:28.320Z,14.40
2023-05-10T21:35:16.093Z,14.30
2023-05-10T21:38:01.497Z,14.30
2023-05-10T21:40:47.133Z,14.30
2023-05-10T21:43:32.624Z,14.30
2023-05-10T21:46:18.355Z,14.30
2023-05-10T21:49:03.868Z,14.30
2023-05-10T21:51:49.438Z,14.30
2023-05-10T21:54:34.943Z,14.30
2023-05-10T21:57:21.675Z,14.20
2023-05-10T22:00:10.873Z,14.20
2023-05-10T22:02:57.898Z,14.20
2023-05-10T22:05:43.539Z,14.20
2023-05-10T22:08:28.855Z,14.20
2023-05-10T22:11:14.554Z,14.20
2023-05-10T22:13:59.756Z,14.20
2023-05-10T22:16:45.315Z,14.20
2023-05-10T22:19:30.680Z,14.20
2023-05-10T22:22:20.958Z,14.20
2023-05-10T22:25:10.131Z,14.20
2023-05-10T22:27:55.910Z,14.20
2023-05-10T22:30:43.023Z,14.20
2023-05-10T22:33:28.469Z,14.20
2023-05-10T22:36:15.311Z,14.20
2023-05-10T22:42:11.301Z,14.20
2023-05-10T22:44:56.959Z,14.10
2023-05-10T22:47:42.294Z,14.10
2023-05-10T22:50:30.743Z,14.10
2023-05-10T22:53:16.394Z,14.10
2023-05-10T22:56:02.484Z,14.10
2023-05-10T22:58:48.864Z,14.10
2023-05-10T23:01:34.709Z,14.10
2023-05-10T23:04:19.954Z,14.00
2023-05-10T23:07:05.477Z,14.00
2023-05-10T23:09:51.687Z,14.00
2023-05-10T23:12:37.248Z,14.00
2023-05-10T23:15:23.064Z,14.00
2023-05-10T23:18:09.865Z,14.00
2023-05-10T23:20:55.307Z,14.00
2023-05-10T23:23:41.472Z,14.00
2023-05-10T23:26:26.887Z,14.00
2023-05-10T23:29:12.812Z,14.00
2023-05-10T23:31:58.414Z,14.00
2023-05-10T23:34:43.716Z,14.00
2023-05-10T23:37:29.065Z,14.10
2023-05-10T23:40:15.461Z,14.10
2023-05-10T23:43:01.592Z,14.10
2023-05-10T23:45:57.986Z,14.10
2023-05-10T23:48:43.785Z,14.00
2023-05-10T23:51:29.261Z,14.00
2023-05-10T23:54:14.866Z,14.00
2023-05-10T23:57:00.214Z,14.00
2023-05-10T23:59:49.681Z,13.90
